createdAt,value
2018-12-31T00:02:38.450Z,11.90
2018-12-31T00:06:42.375Z,11.80
2018-12-31T00:10:46.189Z,11.80
2018-12-31T00:14:50.535Z,11.70
2018-12-31T00:18:54.450Z,11.70
2018-12-31T00:22:58.340Z,11.80
2018-12-31T00:27:02.474Z,11.80
2018-12-31T00:39:14.118Z,11.90
2018-12-31T00:43:18.111Z,11.80
2018-12-31T00:47:22.078Z,11.90
2018-12-31T00:59:32.787Z,11.70
2018-12-31T01:03:36.845Z,11.70
2018-12-31T01:07:40.656Z,11.80
2018-12-31T01:11:44.861Z,11.80
2018-12-31T01:15:49.202Z,11.80
2018-12-31T01:19:53.665Z,11.90
2018-12-31T01:23:57.487Z,11.90
2018-12-31T01:28:01.550Z,11.90
2018-12-31T01:32:06.615Z,11.90
2018-12-31T01:36:10.595Z,11.90
2018-12-31T01:40:14.695Z,11.90
2018-12-31T01:44:19.023Z,11.90
2018-12-31T01:48:23.012Z,11.90
2018-12-31T01:52:26.904Z,11.90
2018-12-31T01:56:31.061Z,11.90
2018-12-31T02:00:35.114Z,11.90
2018-12-31T02:08:42.513Z,11.90
2018-12-31T02:12:46.342Z,11.80
2018-12-31T02:20:54.155Z,11.80
2018-12-31T02:24:58.117Z,11.80
2018-12-31T02:29:02.068Z,11.80
2018-12-31T02:33:05.927Z,11.80
2018-12-31T02:37:10.295Z,11.70
2018-12-31T02:41:14.102Z,11.70
2018-12-31T02:45:18.105Z,11.70
2018-12-31T02:49:21.884Z,11.70
2018-12-31T02:53:25.682Z,11.70
2018-12-31T02:57:29.450Z,11.70
2018-12-31T03:01:33.826Z,11.70
2018-12-31T03:05:37.619Z,11.70
2018-12-31T03:09:41.603Z,11.80
2018-12-31T03:13:45.423Z,11.80
2018-12-31T03:17:49.154Z,11.80
2018-12-31T03:21:53.020Z,11.80
2018-12-31T03:25:56.802Z,11.80
2018-12-31T03:30:00.553Z,11.80
2018-12-31T03:34:04.362Z,11.80
2018-12-31T03:38:08.127Z,11.90
2018-12-31T03:50:18.864Z,11.70
2018-12-31T03:58:26.043Z,11.60
2018-12-31T04:02:29.880Z,11.70
2018-12-31T04:06:33.606Z,11.60
2018-12-31T04:10:37.466Z,11.60
2018-12-31T04:14:41.198Z,11.60
2018-12-31T04:18:45.018Z,11.60
2018-12-31T04:22:49.019Z,11.40
2018-12-31T04:26:52.929Z,11.40
2018-12-31T04:30:56.663Z,11.40
2018-12-31T04:35:01.339Z,11.50
2018-12-31T04:43:10.140Z,11.40
2018-12-31T04:47:14.113Z,11.50
2018-12-31T04:51:17.916Z,11.50
2018-12-31T04:55:21.675Z,11.50
2018-12-31T04:59:25.516Z,11.50
2018-12-31T05:03:29.490Z,11.50
2018-12-31T05:07:33.555Z,11.50
2018-12-31T05:11:37.283Z,11.50
2018-12-31T05:15:41.108Z,11.40
2018-12-31T05:19:44.844Z,11.40
2018-12-31T05:23:48.695Z,11.50
2018-12-31T05:27:52.724Z,11.50
2018-12-31T05:31:56.615Z,11.50
2018-12-31T05:36:00.454Z,11.60
2018-12-31T05:40:04.338Z,11.60
2018-12-31T05:44:08.371Z,11.60
2018-12-31T05:48:12.137Z,11.60
2018-12-31T05:52:15.926Z,11.60
2018-12-31T05:56:19.710Z,11.60
2018-12-31T06:08:30.447Z,11.70
2018-12-31T06:12:34.564Z,11.80
2018-12-31T06:16:38.322Z,11.80
2018-12-31T06:20:42.146Z,11.90
2018-12-31T06:24:45.879Z,11.90
2018-12-31T06:28:49.706Z,11.90
2018-12-31T06:32:53.433Z,11.90
2018-12-31T06:36:57.634Z,11.80
2018-12-31T06:41:01.359Z,11.90
2018-12-31T06:45:05.492Z,12.00
2018-12-31T06:49:09.223Z,12.00
2018-12-31T06:53:13.015Z,11.90
2018-12-31T06:57:16.760Z,11.90
2018-12-31T07:01:20.574Z,11.90
2018-12-31T07:05:24.569Z,11.90
2018-12-31T07:09:28.375Z,11.90
2018-12-31T07:17:35.834Z,12.00
2018-12-31T07:29:46.727Z,11.90
2018-12-31T07:33:50.486Z,11.80
2018-12-31T07:37:54.655Z,11.80
2018-12-31T07:41:58.435Z,11.90
2018-12-31T07:54:08.949Z,11.80
2018-12-31T08:02:16.258Z,11.80
2018-12-31T08:06:20.042Z,11.80
2018-12-31T08:10:23.767Z,11.70
2018-12-31T08:14:27.596Z,11.70
2018-12-31T08:18:31.327Z,11.70
2018-12-31T08:22:35.096Z,11.70
2018-12-31T08:26:38.830Z,11.60
2018-12-31T08:30:46.122Z,11.60
2018-12-31T08:34:49.851Z,11.60
2018-12-31T08:38:53.683Z,11.70
2018-12-31T08:42:57.738Z,11.70
2018-12-31T08:47:01.588Z,11.70
2018-12-31T08:51:05.319Z,11.70
2018-12-31T08:55:09.202Z,11.70
2018-12-31T08:59:12.995Z,11.80
2018-12-31T09:03:17.113Z,11.80
2018-12-31T09:07:21.112Z,11.80
2018-12-31T09:11:24.911Z,11.80
2018-12-31T09:15:28.646Z,11.80
2018-12-31T09:19:32.404Z,11.80
2018-12-31T09:23:36.154Z,11.80
2018-12-31T09:27:40.268Z,11.70
2018-12-31T09:31:44.310Z,11.60
2018-12-31T09:35:48.114Z,11.70
2018-12-31T09:39:52.825Z,11.80
2018-12-31T09:43:56.618Z,11.80
2018-12-31T09:48:00.362Z,11.80
2018-12-31T09:52:04.170Z,11.60
2018-12-31T09:56:07.915Z,11.60
2018-12-31T10:00:11.744Z,11.60
2018-12-31T10:04:15.479Z,11.60
2018-12-31T10:08:19.226Z,11.60
2018-12-31T10:12:23.586Z,11.60
2018-12-31T10:16:27.387Z,11.50
2018-12-31T10:24:34.476Z,11.50
2018-12-31T10:28:38.498Z,11.50
2018-12-31T10:32:42.279Z,11.30
2018-12-31T10:36:46.019Z,11.40
2018-12-31T10:40:49.855Z,11.40
2018-12-31T10:44:53.578Z,11.40
2018-12-31T10:48:57.422Z,11.40
2018-12-31T10:53:01.159Z,11.50
2018-12-31T10:57:05.135Z,11.50
2018-12-31T11:01:08.879Z,11.50
2018-12-31T11:05:12.679Z,11.60
2018-12-31T11:09:16.475Z,11.70
2018-12-31T11:13:20.335Z,11.70
2018-12-31T11:17:24.195Z,11.60
2018-12-31T11:21:28.383Z,11.70
2018-12-31T11:25:32.223Z,11.70
2018-12-31T11:29:36.350Z,11.70
2018-12-31T11:33:40.087Z,11.70
2018-12-31T11:37:43.910Z,11.60
2018-12-31T11:41:47.997Z,11.70
2018-12-31T11:45:52.059Z,11.70
2018-12-31T11:49:55.805Z,11.90
2018-12-31T11:58:02.987Z,12.00
2018-12-31T12:02:06.947Z,12.10
2018-12-31T12:06:10.776Z,12.10
2018-12-31T12:10:14.894Z,12.10
2018-12-31T12:22:25.341Z,12.00
2018-12-31T12:30:32.838Z,12.10
2018-12-31T12:34:36.893Z,12.10
2018-12-31T12:38:40.642Z,12.10
2018-12-31T12:42:45.407Z,12.00
2018-12-31T12:46:49.419Z,12.00
2018-12-31T12:50:53.230Z,12.00
2018-12-31T12:54:56.971Z,12.00
2018-12-31T12:59:00.906Z,12.00
2018-12-31T13:03:04.645Z,12.10
2018-12-31T13:07:08.487Z,12.10
2018-12-31T13:11:12.540Z,12.20
2018-12-31T13:15:16.639Z,12.10
2018-12-31T13:19:20.856Z,12.10
2018-12-31T13:23:24.827Z,12.10
2018-12-31T13:27:28.580Z,12.00
2018-12-31T13:31:32.385Z,11.90
2018-12-31T13:35:36.126Z,11.70
2018-12-31T13:39:40.314Z,11.90
2018-12-31T13:43:44.119Z,12.00
2018-12-31T13:47:47.876Z,12.00
2018-12-31T13:51:51.966Z,12.10
2018-12-31T13:55:55.829Z,12.10
2018-12-31T13:59:59.910Z,12.10
2018-12-31T14:04:03.856Z,12.00
2018-12-31T14:08:08.004Z,11.90
2018-12-31T14:12:11.810Z,11.80
2018-12-31T14:16:15.635Z,11.80
2018-12-31T14:24:22.867Z,11.80
2018-12-31T14:28:27.705Z,11.80
2018-12-31T14:40:42.555Z,11.80
2018-12-31T14:44:46.919Z,11.90
2018-12-31T14:56:57.945Z,12.10
2018-12-31T15:01:01.754Z,11.90
2018-12-31T15:25:22.686Z,11.80
2018-12-31T15:29:26.415Z,11.80
2018-12-31T15:37:33.503Z,11.80
2018-12-31T15:49:44.050Z,11.60
2018-12-31T16:01:54.798Z,11.70
2018-12-31T16:14:05.314Z,11.70
2018-12-31T16:18:09.042Z,11.70
2018-12-31T16:22:13.234Z,11.80
2018-12-31T16:42:30.922Z,12.00
2018-12-31T16:54:42.454Z,12.10
2018-12-31T17:02:49.506Z,12.10
2018-12-31T17:06:53.239Z,12.10
2018-12-31T17:19:04.046Z,12.10
2018-12-31T17:27:11.134Z,12.10
2018-12-31T17:35:18.575Z,12.10
2018-12-31T17:39:22.360Z,12.10
2018-12-31T17:47:29.818Z,12.10
2018-12-31T17:51:33.830Z,12.10
2018-12-31T17:55:37.568Z,12.00
2018-12-31T18:24:03.038Z,12.10
2018-12-31T18:28:06.859Z,12.10
2018-12-31T18:32:10.606Z,12.10
2018-12-31T18:40:18.006Z,12.00
2018-12-31T19:00:36.014Z,11.90
2018-12-31T19:16:49.834Z,11.90
2018-12-31T19:20:54.111Z,11.90
2018-12-31T19:24:57.940Z,11.90
2018-12-31T19:37:08.873Z,11.80
2018-12-31T19:45:16.087Z,11.80
2018-12-31T19:53:23.660Z,11.80
2018-12-31T19:57:27.531Z,11.70
2018-12-31T20:09:38.054Z,11.70
2018-12-31T20:21:49.007Z,11.70
2018-12-31T20:42:06.904Z,11.60
2018-12-31T20:58:22.434Z,11.50
2018-12-31T21:06:29.882Z,11.50
2018-12-31T21:14:39.108Z,11.50
2018-12-31T21:18:42.936Z,11.50
2018-12-31T21:22:47.169Z,11.50
2018-12-31T21:30:55.365Z,11.50
2018-12-31T21:47:09.893Z,11.50
2018-12-31T21:51:14.877Z,11.50
2018-12-31T21:59:22.491Z,11.40
2018-12-31T22:11:33.307Z,11.30
2018-12-31T22:31:53.812Z,11.30
2018-12-31T22:44:05.119Z,11.30
2018-12-31T22:48:08.875Z,11.30
2018-12-31T22:52:12.959Z,11.30
2018-12-31T22:56:17.883Z,11.30
2018-12-31T23:12:37.739Z,11.40
2018-12-31T23:16:45.841Z,11.40
2018-12-31T23:20:49.778Z,11.40
2018-12-31T23:37:05.199Z,11.30
2018-12-31T23:41:09.145Z,11.30
2018-12-31T23:57:24.263Z,11.30
